首页
METAR-TAF:

METAR-TAF

机场 :

巴特爾克里克, 密歇根州, 美国

纬度: 42-18-45N, 经度: 085-14-27W, 海拔: 290米

当前天气观测

该预报发布于18分钟前的01:53 UTC
风速4节,风向东南
温度 14°C
湿度 26%
气压 1016 hPa
能見度: 16.1公里
阴天层高于4600英尺

METAR: KBTL 070153Z 14004KT 10SM OVC046 14/M05 A2999 RMK AO2 SLP155 T01441050 $

时间: 22:11 (02:11 UTC)

预报

该预报发布于2小时和31分钟前的23:40 UTC
预报有效从07日的 00点(UTC)到 07日的 24点(UTC)
风速4节,风向南转南东
能見度: 10公里
散云层高于15000英尺
多云层高于25000英尺
从 07日的 0600点(UTC)
风速5节,风向东转东南
能見度: 10公里
阴天层高于3000英尺
小阵雨
从 07日的 1200点(UTC)
风速6节,风向南转西南
能見度: 4.8公里
多云层高于600英尺
轻雾
从 07日的 2000点(UTC)
风速9节,风向西转西南
能見度: 10公里
多云层高于2500英尺
从 07日的 2100点(UTC)
风速10节,风向西转西南,有时为19节阵风
能見度: 10公里
多云层高于6000英尺

TAF: KBTL 062340Z 0700/0724 16004KT P6SM SCT150 BKN250 FM070600 12005KT P6SM -SHRA OVC030 FM071200 21006KT 3SM BR BKN006 FM072000 25009KT P6SM BKN025 FM072100 25010G19KT P6SM BKN060

超过4000个机场的气象观测和天气预报(METAR&TAF报告)。

可查询的气象台以黄色和红色小点在地图上表示。

将鼠标移到小点上方,可查看气象台名称。

然后点击查看天气观测和预报。

如需切换地图:点击带黑十字的绿色按钮放大地图;点击带横线的绿色按钮缩小地图;或者点击绿色箭头查看邻近地区的地图。


METAR-TAF: